createdAt,value
2022-12-26T00:00:37.603Z,6.20
2022-12-26T00:03:04.540Z,6.32
2022-12-26T00:05:36.903Z,6.72
2022-12-26T00:08:04.558Z,7.00
2022-12-26T00:10:31.222Z,6.85
2022-12-26T00:13:37.121Z,6.47
2022-12-26T00:15:44.577Z,8.05
2022-12-26T00:18:11.372Z,7.90
2022-12-26T00:20:37.979Z,6.30
2022-12-26T00:23:04.647Z,6.80
2022-12-26T00:25:34.412Z,6.50
2022-12-26T00:28:01.384Z,6.75
2022-12-26T00:30:28.334Z,6.75
2022-12-26T00:32:55.269Z,7.25
2022-12-26T00:35:21.995Z,8.57
2022-12-26T00:37:48.646Z,7.22
2022-12-26T00:40:15.304Z,6.03
2022-12-26T00:42:41.953Z,6.20
2022-12-26T00:45:08.908Z,6.35
2022-12-26T00:47:35.458Z,6.00
2022-12-26T00:50:13.542Z,6.82
2022-12-26T00:52:42.621Z,5.93
2022-12-26T00:55:09.917Z,6.07
2022-12-26T00:57:36.486Z,6.57
2022-12-26T01:00:03.846Z,6.40
2022-12-26T01:02:39.639Z,7.25
2022-12-26T01:05:08.515Z,7.03
2022-12-26T01:08:23.543Z,5.70
2022-12-26T01:10:23.602Z,6.20
2022-12-26T01:12:50.360Z,6.95
2022-12-26T01:15:17.115Z,5.85
2022-12-26T01:17:43.747Z,6.22
2022-12-26T01:20:10.856Z,6.32
2022-12-26T01:22:37.919Z,6.35
2022-12-26T01:25:05.236Z,6.25
2022-12-26T01:27:31.906Z,6.10
2022-12-26T01:29:58.517Z,6.25
2022-12-26T01:32:25.230Z,5.55
2022-12-26T01:34:55.226Z,6.70
2022-12-26T01:37:23.517Z,6.20
2022-12-26T01:39:51.458Z,5.60
2022-12-26T01:42:21.046Z,5.10
2022-12-26T01:45:18.835Z,7.47
2022-12-26T01:47:53.879Z,6.00
2022-12-26T01:50:41.322Z,5.78
2022-12-26T01:53:17.304Z,5.47
2022-12-26T01:55:47.869Z,6.05
2022-12-26T01:58:23.813Z,5.70
2022-12-26T02:00:51.375Z,5.72
2022-12-26T02:03:36.965Z,5.50
2022-12-26T02:06:04.183Z,5.60
2022-12-26T02:08:34.449Z,5.55
2022-12-26T02:11:21.374Z,5.38
2022-12-26T02:13:48.099Z,5.38
2022-12-26T02:16:17.246Z,5.90
2022-12-26T02:18:44.232Z,5.63
2022-12-26T02:21:37.642Z,5.78
2022-12-26T02:24:36.289Z,5.88
2022-12-26T02:27:16.060Z,6.00
2022-12-26T02:29:55.637Z,5.38
2022-12-26T02:32:40.867Z,5.50
2022-12-26T02:35:30.638Z,5.47
2022-12-26T02:38:08.950Z,5.32
2022-12-26T02:41:20.643Z,5.32
2022-12-26T02:44:33.237Z,4.72
2022-12-26T02:47:16.857Z,5.63
2022-12-26T02:50:18.558Z,5.95
2022-12-26T02:53:18.696Z,5.53
2022-12-26T02:56:07.447Z,4.72
2022-12-26T02:59:03.981Z,5.30
2022-12-26T03:01:57.959Z,5.15
2022-12-26T03:04:46.016Z,6.05
2022-12-26T03:07:39.596Z,5.38
2022-12-26T03:10:34.874Z,5.68
2022-12-26T03:13:13.725Z,5.97
2022-12-26T03:16:15.014Z,4.97
2022-12-26T03:18:58.546Z,4.68
2022-12-26T03:21:31.608Z,6.38
2022-12-26T03:23:58.337Z,5.35
2022-12-26T03:26:43.583Z,6.07
2022-12-26T03:29:35.640Z,6.05
2022-12-26T03:32:05.540Z,5.28
2022-12-26T03:34:32.684Z,5.30
2022-12-26T03:37:47.959Z,5.47
2022-12-26T03:41:18.116Z,4.78
2022-12-26T03:44:44.218Z,5.23
2022-12-26T03:47:48.175Z,5.80
2022-12-26T03:51:02.412Z,5.18
2022-12-26T03:54:02.181Z,5.22
2022-12-26T03:57:12.787Z,5.45
2022-12-26T04:00:11.892Z,5.53
2022-12-26T04:03:00.643Z,5.28
2022-12-26T04:05:46.727Z,5.50
2022-12-26T04:08:46.957Z,5.00
2022-12-26T04:11:36.032Z,4.82
2022-12-26T04:14:45.075Z,5.82
2022-12-26T04:17:54.310Z,6.55
2022-12-26T04:20:29.939Z,6.65
2022-12-26T04:23:23.719Z,6.30
2022-12-26T04:26:17.072Z,5.70
2022-12-26T04:29:02.259Z,5.50
2022-12-26T04:31:59.404Z,5.38
2022-12-26T04:34:50.939Z,6.15
2022-12-26T04:37:42.667Z,6.47
2022-12-26T04:40:34.069Z,5.35
2022-12-26T04:43:48.239Z,5.32
2022-12-26T04:46:08.881Z,6.25
2022-12-26T04:49:04.976Z,6.60
2022-12-26T04:51:31.714Z,5.60
2022-12-26T04:53:58.344Z,5.13
2022-12-26T04:56:25.169Z,5.18
2022-12-26T04:58:52.121Z,5.05
2022-12-26T05:01:37.372Z,5.32
2022-12-26T05:04:22.936Z,4.97
2022-12-26T05:07:08.883Z,4.65
2022-12-26T05:09:35.761Z,5.20
2022-12-26T05:12:04.697Z,4.45
2022-12-26T05:14:31.750Z,4.85
2022-12-26T05:17:17.381Z,5.25
2022-12-26T05:20:02.764Z,4.40
2022-12-26T05:22:50.858Z,4.90
2022-12-26T05:25:39.732Z,5.10
2022-12-26T05:28:29.055Z,5.35
2022-12-26T05:30:55.754Z,4.30
2022-12-26T05:33:41.236Z,4.85
2022-12-26T05:36:08.777Z,4.40
2022-12-26T05:38:36.383Z,5.18
2022-12-26T05:41:03.577Z,5.43
2022-12-26T05:43:30.283Z,5.00
2022-12-26T05:45:57.046Z,4.28
2022-12-26T05:48:23.824Z,4.45
2022-12-26T05:50:50.434Z,5.28
2022-12-26T05:53:17.088Z,4.50
2022-12-26T05:55:43.816Z,4.20
2022-12-26T05:58:10.464Z,4.53
2022-12-26T06:00:37.086Z,4.70
2022-12-26T06:03:03.906Z,4.72
2022-12-26T06:05:30.606Z,4.50
2022-12-26T06:07:57.314Z,4.68
2022-12-26T06:10:26.199Z,4.45
2022-12-26T06:12:53.347Z,5.95
2022-12-26T06:15:20.209Z,4.63
2022-12-26T06:17:46.958Z,4.07
2022-12-26T06:20:13.589Z,3.83
2022-12-26T06:22:40.265Z,4.35
2022-12-26T06:25:07.943Z,4.10
2022-12-26T06:27:34.590Z,3.88
2022-12-26T06:30:01.300Z,4.80
2022-12-26T06:32:27.967Z,4.75
2022-12-26T06:34:54.546Z,4.25
2022-12-26T06:37:21.167Z,4.07
2022-12-26T06:39:47.735Z,4.93
2022-12-26T06:42:14.322Z,3.95
2022-12-26T06:44:40.900Z,5.18
2022-12-26T06:47:07.550Z,3.80
2022-12-26T06:49:34.248Z,4.53
2022-12-26T06:52:00.896Z,4.30
2022-12-26T06:54:27.633Z,4.35
2022-12-26T06:56:54.201Z,3.67
2022-12-26T06:59:20.936Z,4.70
2022-12-26T07:01:48.283Z,4.70
2022-12-26T07:04:15.153Z,4.30
2022-12-26T07:06:41.803Z,4.63
2022-12-26T07:09:14.254Z,3.97
2022-12-26T07:11:43.521Z,4.40
2022-12-26T07:14:10.664Z,4.88
2022-12-26T07:16:38.874Z,4.43
2022-12-26T07:19:06.470Z,4.43
2022-12-26T07:21:39.849Z,4.18
2022-12-26T07:24:09.003Z,4.93
2022-12-26T07:26:35.766Z,6.10
2022-12-26T07:29:02.357Z,4.60
2022-12-26T07:31:29.347Z,5.82
2022-12-26T07:33:56.783Z,5.57
2022-12-26T07:36:25.164Z,5.43
2022-12-26T07:38:52.158Z,4.80
2022-12-26T07:41:38.049Z,5.47
2022-12-26T07:44:06.096Z,5.68
2022-12-26T07:46:33.040Z,6.28
2022-12-26T07:48:59.889Z,5.95
2022-12-26T07:51:26.977Z,7.28
2022-12-26T07:53:53.625Z,6.82
2022-12-26T07:56:20.300Z,7.38
2022-12-26T07:58:50.973Z,6.63
2022-12-26T08:01:18.149Z,7.82
2022-12-26T08:03:45.135Z,7.30
2022-12-26T08:06:12.108Z,7.53
2022-12-26T08:08:39.129Z,7.03
2022-12-26T08:11:07.894Z,8.30
2022-12-26T08:13:35.286Z,7.77
2022-12-26T08:16:06.713Z,8.63
2022-12-26T08:18:33.967Z,7.60
2022-12-26T08:21:00.810Z,7.38
2022-12-26T08:23:28.067Z,8.20
2022-12-26T08:25:54.754Z,8.27
2022-12-26T08:28:21.425Z,7.35
2022-12-26T08:30:49.728Z,8.55
2022-12-26T08:33:17.068Z,7.30
2022-12-26T08:35:44.135Z,7.90
2022-12-26T08:38:10.808Z,8.52
2022-12-26T08:40:44.862Z,8.57
2022-12-26T08:43:30.158Z,8.38
2022-12-26T08:46:04.787Z,8.32
2022-12-26T08:48:32.223Z,8.32
2022-12-26T08:51:01.772Z,8.02
2022-12-26T08:53:33.695Z,8.50
2022-12-26T08:56:01.285Z,9.43
2022-12-26T08:58:29.356Z,8.70
2022-12-26T09:01:06.822Z,8.43
2022-12-26T09:04:00.747Z,8.18
2022-12-26T09:06:31.764Z,8.88
2022-12-26T09:09:07.676Z,8.98
2022-12-26T09:11:35.938Z,10.07
2022-12-26T09:14:04.239Z,8.25
2022-12-26T09:16:39.948Z,9.38
2022-12-26T09:19:11.921Z,7.80
2022-12-26T09:21:42.177Z,7.32
2022-12-26T09:24:20.691Z,8.05
2022-12-26T09:26:48.563Z,8.18
2022-12-26T09:29:16.363Z,6.75
2022-12-26T09:31:43.925Z,7.68
2022-12-26T09:34:14.378Z,6.82
2022-12-26T09:37:03.479Z,7.43
2022-12-26T09:39:32.135Z,7.47
2022-12-26T09:45:12.331Z,7.68
2022-12-26T09:48:10.633Z,6.80
2022-12-26T09:50:43.256Z,7.28
2022-12-26T09:53:22.954Z,8.05
2022-12-26T09:56:23.789Z,7.50
2022-12-26T09:59:09.157Z,7.38
2022-12-26T10:01:43.966Z,7.10
2022-12-26T10:04:30.396Z,6.95
2022-12-26T10:07:13.098Z,7.05
2022-12-26T10:09:53.072Z,6.07
2022-12-26T10:12:27.411Z,7.70
2022-12-26T10:15:29.835Z,7.95
2022-12-26T10:18:24.348Z,7.70
2022-12-26T10:21:10.327Z,7.80
2022-12-26T10:23:47.382Z,6.90
2022-12-26T10:26:35.453Z,6.57
2022-12-26T10:29:37.465Z,7.20
2022-12-26T10:32:27.732Z,8.00
2022-12-26T10:34:56.523Z,6.63
2022-12-26T10:37:38.195Z,7.22
2022-12-26T10:40:22.800Z,7.35
2022-12-26T10:42:54.861Z,7.40
2022-12-26T10:45:37.867Z,8.60
2022-12-26T10:48:05.227Z,7.20
2022-12-26T10:50:34.879Z,6.10
2022-12-26T10:55:34.973Z,6.95
2022-12-26T10:58:24.185Z,6.15
2022-12-26T11:00:50.889Z,6.45
2022-12-26T11:03:19.988Z,5.55
2022-12-26T11:06:10.663Z,4.75
2022-12-26T11:08:43.497Z,4.97
2022-12-26T11:11:48.002Z,5.22
2022-12-26T11:14:34.091Z,5.22
2022-12-26T11:17:28.793Z,4.28
2022-12-26T11:20:16.943Z,5.05
2022-12-26T11:22:44.988Z,4.13
2022-12-26T11:25:16.591Z,4.13
2022-12-26T11:27:46.938Z,4.10
2022-12-26T11:30:34.393Z,3.70
2022-12-26T11:33:19.486Z,3.17
2022-12-26T11:35:50.310Z,2.97
2022-12-26T11:38:39.128Z,3.33
2022-12-26T11:41:39.830Z,3.05
2022-12-26T11:44:23.929Z,3.05
2022-12-26T11:46:53.826Z,3.55
2022-12-26T11:49:33.660Z,3.25
2022-12-26T11:52:19.817Z,3.38
2022-12-26T11:54:50.696Z,3.13
2022-12-26T11:57:19.174Z,3.03
2022-12-26T11:59:46.986Z,2.72
2022-12-26T12:02:29.234Z,3.00
2022-12-26T12:05:04.402Z,2.90
2022-12-26T12:08:00.996Z,2.75
2022-12-26T12:10:52.001Z,2.10
2022-12-26T12:13:35.334Z,2.58
2022-12-26T12:16:36.414Z,2.50
2022-12-26T12:19:12.190Z,2.35
2022-12-26T12:21:46.032Z,2.45
2022-12-26T12:24:42.608Z,2.42
2022-12-26T12:27:44.056Z,2.20
2022-12-26T12:30:16.740Z,2.22
2022-12-26T12:33:10.576Z,2.72
2022-12-26T12:35:49.514Z,2.50
2022-12-26T12:38:39.177Z,2.55
2022-12-26T12:44:07.235Z,2.00
2022-12-26T12:46:40.042Z,1.83
2022-12-26T12:49:35.983Z,2.05
2022-12-26T12:52:11.782Z,2.28
2022-12-26T12:55:02.934Z,1.95
2022-12-26T12:57:42.987Z,2.28
2022-12-26T13:00:21.521Z,2.78
2022-12-26T13:02:57.208Z,2.15
2022-12-26T13:05:50.721Z,2.28
2022-12-26T13:08:23.651Z,2.63
2022-12-26T13:11:09.091Z,2.72
2022-12-26T13:13:49.957Z,2.40
2022-12-26T13:16:27.599Z,2.00
2022-12-26T13:19:02.125Z,2.10
2022-12-26T13:21:34.137Z,2.15
2022-12-26T13:24:24.464Z,1.92
2022-12-26T13:27:18.273Z,2.45
2022-12-26T13:29:47.110Z,2.45
2022-12-26T13:32:31.313Z,2.43
2022-12-26T13:35:00.864Z,2.40
2022-12-26T13:37:39.577Z,2.08
2022-12-26T13:40:19.250Z,1.70
2022-12-26T13:45:57.560Z,1.23
2022-12-26T13:48:27.268Z,1.17
2022-12-26T13:53:26.378Z,1.05
2022-12-26T13:58:47.374Z,1.50
2022-12-26T14:01:36.087Z,1.15
2022-12-26T14:04:14.929Z,1.50
2022-12-26T14:07:04.479Z,1.85
2022-12-26T14:09:54.469Z,1.23
2022-12-26T14:12:46.069Z,1.75
2022-12-26T14:15:18.946Z,1.50
2022-12-26T14:18:05.434Z,1.67
2022-12-26T14:20:45.106Z,1.60
2022-12-26T14:26:26.638Z,1.20
2022-12-26T14:29:05.185Z,1.20
2022-12-26T14:31:56.650Z,1.30
2022-12-26T14:34:52.350Z,1.05
2022-12-26T14:37:42.756Z,1.27
2022-12-26T14:40:29.448Z,1.65
2022-12-26T14:43:17.315Z,1.10
2022-12-26T14:45:52.236Z,1.25
2022-12-26T14:48:18.870Z,1.90
2022-12-26T14:50:46.947Z,2.47
2022-12-26T14:53:28.620Z,2.13
2022-12-26T14:56:32.864Z,1.90
2022-12-26T14:59:24.168Z,2.67
2022-12-26T15:02:11.684Z,2.20
2022-12-26T15:05:03.033Z,2.28
2022-12-26T15:08:00.711Z,1.88
2022-12-26T15:10:33.274Z,2.05
2022-12-26T15:13:23.867Z,2.10
2022-12-26T15:16:16.676Z,1.92
2022-12-26T15:19:17.576Z,2.78
2022-12-26T15:21:49.791Z,2.13
2022-12-26T15:25:08.315Z,1.88
2022-12-26T15:27:31.371Z,2.03
2022-12-26T15:30:22.697Z,1.90
2022-12-26T15:32:49.297Z,1.70
2022-12-26T15:35:33.594Z,1.73
2022-12-26T15:38:24.058Z,2.03
2022-12-26T15:41:11.107Z,2.08
2022-12-26T15:43:49.264Z,2.70
2022-12-26T15:46:33.249Z,2.25
2022-12-26T15:49:21.413Z,3.25
2022-12-26T15:51:56.181Z,2.10
2022-12-26T15:54:49.844Z,2.30
2022-12-26T15:57:41.062Z,2.45
2022-12-26T16:00:25.642Z,2.60
2022-12-26T16:03:10.217Z,2.25
2022-12-26T16:05:56.903Z,2.40
2022-12-26T16:08:51.116Z,2.50
2022-12-26T16:11:24.158Z,2.55
2022-12-26T16:13:52.465Z,2.40
2022-12-26T16:16:30.052Z,2.22
2022-12-26T16:18:57.305Z,2.03
2022-12-26T16:21:46.872Z,1.88
2022-12-26T16:24:16.539Z,1.88
2022-12-26T16:29:19.171Z,1.88
2022-12-26T16:31:46.728Z,2.38
2022-12-26T16:34:19.872Z,1.63
2022-12-26T16:36:50.016Z,1.98
2022-12-26T16:39:23.449Z,2.00
2022-12-26T16:42:05.955Z,1.67
2022-12-26T16:44:37.291Z,1.55
2022-12-26T16:47:08.126Z,1.88
2022-12-26T16:49:36.405Z,1.50
2022-12-26T16:52:03.927Z,1.65
2022-12-26T16:54:42.315Z,1.27
2022-12-26T16:57:13.702Z,1.05
2022-12-26T16:59:58.357Z,1.10
2022-12-26T17:02:28.740Z,0.90
2022-12-26T17:05:04.693Z,1.10
2022-12-26T17:07:32.908Z,1.00
2022-12-26T17:10:00.751Z,0.90
2022-12-26T17:12:37.168Z,0.98
2022-12-26T17:15:06.617Z,1.20
2022-12-26T17:17:37.023Z,2.17
2022-12-26T17:20:21.978Z,1.13
2022-12-26T17:22:58.647Z,1.05
2022-12-26T17:25:29.428Z,1.05
2022-12-26T17:28:08.539Z,1.13
2022-12-26T17:30:37.756Z,1.00
2022-12-26T17:33:23.832Z,1.20
2022-12-26T17:37:19.306Z,1.10
2022-12-26T17:38:54.126Z,1.50
2022-12-26T17:41:20.920Z,1.73
2022-12-26T17:43:47.749Z,1.50
2022-12-26T17:46:17.137Z,1.73
2022-12-26T17:48:44.665Z,2.17
2022-12-26T17:51:17.199Z,2.30
2022-12-26T17:53:50.965Z,1.88
2022-12-26T17:56:21.166Z,1.50
2022-12-26T17:58:49.059Z,1.98
2022-12-26T18:01:21.029Z,1.98
2022-12-26T18:03:49.576Z,1.05
2022-12-26T18:06:17.337Z,1.33
2022-12-26T18:08:44.769Z,1.38
2022-12-26T18:11:13.442Z,1.02
2022-12-26T18:13:40.211Z,1.00
2022-12-26T18:16:07.607Z,1.10
2022-12-26T18:18:42.595Z,0.73
2022-12-26T18:21:12.272Z,1.23
2022-12-26T18:26:27.053Z,0.93
2022-12-26T18:28:54.006Z,1.02
2022-12-26T18:31:21.021Z,1.15
2022-12-26T18:33:47.706Z,1.08
2022-12-26T18:36:15.761Z,1.30
2022-12-26T18:38:42.931Z,2.40
2022-12-26T18:41:14.591Z,2.20
2022-12-26T18:43:41.177Z,2.40
2022-12-26T18:46:26.800Z,3.08
2022-12-26T18:48:54.308Z,2.65
2022-12-26T18:51:21.385Z,2.80
2022-12-26T18:53:48.048Z,2.33
2022-12-26T18:56:18.465Z,2.60
2022-12-26T18:58:55.506Z,3.72
2022-12-26T19:01:24.773Z,2.40
2022-12-26T19:03:53.616Z,3.22
2022-12-26T19:06:24.988Z,2.65
2022-12-26T19:08:51.633Z,2.83
2022-12-26T19:11:18.412Z,2.75
2022-12-26T19:13:45.216Z,3.13
2022-12-26T19:16:12.324Z,2.40
2022-12-26T19:18:39.121Z,2.33
2022-12-26T19:21:14.561Z,3.70
2022-12-26T19:23:41.704Z,2.58
2022-12-26T19:26:13.239Z,2.97
2022-12-26T19:28:40.199Z,2.80
2022-12-26T19:31:12.261Z,2.72
2022-12-26T19:33:39.009Z,2.38
2022-12-26T19:36:06.914Z,2.80
2022-12-26T19:38:33.813Z,2.05
2022-12-26T19:41:02.603Z,1.98
2022-12-26T19:43:29.307Z,2.47
2022-12-26T19:46:04.031Z,2.53
2022-12-26T19:48:32.181Z,2.33
2022-12-26T19:51:09.625Z,3.20
2022-12-26T19:53:37.206Z,4.10
2022-12-26T19:56:19.871Z,2.95
2022-12-26T19:58:50.546Z,2.90
2022-12-26T20:01:24.352Z,2.80
2022-12-26T20:03:56.165Z,3.00
2022-12-26T20:06:25.161Z,3.60
2022-12-26T20:08:52.599Z,3.05
2022-12-26T20:11:24.572Z,3.03
2022-12-26T20:13:51.661Z,3.35
2022-12-26T20:17:02.684Z,3.33
2022-12-26T20:19:07.890Z,3.90
2022-12-26T20:21:35.040Z,3.33
2022-12-26T20:24:02.470Z,3.22
2022-12-26T20:26:29.492Z,2.90
2022-12-26T20:28:58.601Z,2.75
2022-12-26T20:31:25.311Z,3.42
2022-12-26T20:33:52.667Z,2.70
2022-12-26T20:36:28.384Z,3.17
2022-12-26T20:38:57.507Z,2.88
2022-12-26T20:41:25.330Z,3.38
2022-12-26T20:43:52.673Z,3.00
2022-12-26T20:46:23.781Z,3.13
2022-12-26T20:48:51.019Z,3.13
2022-12-26T20:51:23.607Z,3.00
2022-12-26T20:53:51.403Z,2.58
2022-12-26T20:56:18.385Z,2.40
2022-12-26T20:58:45.069Z,2.47
2022-12-26T21:01:22.722Z,2.92
2022-12-26T21:03:52.744Z,2.33
2022-12-26T21:06:26.042Z,1.95
2022-12-26T21:08:53.594Z,1.95
2022-12-26T21:11:28.300Z,2.20
2022-12-26T21:13:57.959Z,2.42
2022-12-26T21:18:54.226Z,2.72
2022-12-26T21:21:26.156Z,1.80
2022-12-26T21:24:23.671Z,2.90
2022-12-26T21:26:50.643Z,2.40
2022-12-26T21:29:20.684Z,2.38
2022-12-26T21:31:48.443Z,2.55
2022-12-26T21:34:17.270Z,2.67
2022-12-26T21:37:03.496Z,3.03
2022-12-26T21:39:30.620Z,3.47
2022-12-26T21:41:57.391Z,2.92
2022-12-26T21:44:24.056Z,2.00
2022-12-26T21:46:50.747Z,2.35
2022-12-26T21:49:17.416Z,1.90
2022-12-26T21:51:44.239Z,2.63
2022-12-26T21:54:29.555Z,2.35
2022-12-26T21:56:56.172Z,4.47
2022-12-26T21:59:41.638Z,2.13
2022-12-26T22:02:32.859Z,4.53
2022-12-26T22:05:01.036Z,2.20
2022-12-26T22:07:28.622Z,2.08
2022-12-26T22:09:55.267Z,2.90
2022-12-26T22:12:40.593Z,3.85
2022-12-26T22:15:27.874Z,4.88
2022-12-26T22:17:54.591Z,3.28
2022-12-26T22:20:21.655Z,3.00
2022-12-26T22:22:49.218Z,2.90
2022-12-26T22:25:16.684Z,2.78
2022-12-26T22:27:43.297Z,3.33
2022-12-26T22:30:10.842Z,3.30
2022-12-26T22:32:37.491Z,3.47
2022-12-26T22:35:04.646Z,3.05
2022-12-26T22:37:31.248Z,2.90
2022-12-26T22:39:57.838Z,2.80
2022-12-26T22:42:24.449Z,2.92
2022-12-26T22:44:51.061Z,2.55
2022-12-26T22:47:17.739Z,2.55
2022-12-26T22:49:44.339Z,2.85
2022-12-26T22:52:15.716Z,2.75
2022-12-26T22:54:43.657Z,2.10
2022-12-26T22:57:10.320Z,2.35
2022-12-26T23:00:06.907Z,2.70
2022-12-26T23:02:24.373Z,2.22
2022-12-26T23:04:51.363Z,3.17
2022-12-26T23:07:20.749Z,3.83
2022-12-26T23:09:48.160Z,2.58
2022-12-26T23:12:34.199Z,2.63
2022-12-26T23:15:00.939Z,2.22
2022-12-26T23:17:50.124Z,2.35
2022-12-26T23:20:36.469Z,2.50
2022-12-26T23:23:03.451Z,2.33
2022-12-26T23:25:30.622Z,1.88
2022-12-26T23:28:15.879Z,2.20
2022-12-26T23:30:42.475Z,2.60
2022-12-26T23:33:09.377Z,3.33
2022-12-26T23:35:36.110Z,2.65
2022-12-26T23:38:02.744Z,3.00
2022-12-26T23:40:29.470Z,2.97
2022-12-26T23:42:56.106Z,3.88
2022-12-26T23:45:22.705Z,4.00
2022-12-26T23:47:49.333Z,2.97
2022-12-26T23:50:16.601Z,2.70
2022-12-26T23:52:43.879Z,3.40
2022-12-26T23:55:10.847Z,3.17
2022-12-26T23:57:37.785Z,2.75
